Gurley, Nebraska
Current Conditions -  °F | °C
As of 7:53 AM on Thursday 23 Oct 2014 (Local Time) from KSNY Reporting Station
Clear Clear  
Wind Chill: 33°   Ceiling: Unl
Heat Index: 38°   Visibility: 10mi
Dew Point: 33°   Wind: 6mph
Humidity: 83%   Direction: 280°W
Pressure: 30.12"   Gusts: NA
Location:  41.32°N, 102.97°W
Report Text: KSNY 231353Z AUTO 28005KT 10SM CLR 03/01 A3012 RMK AO2 SLP196 T00330006
Loading
Personal Weather Stations






























Interactive Weather Map
Tropical Storm Tracking
New forecast layout! Learn more

10-Day Weather Forecast

Advertisements
Track Severe Weather on mobile